Accueil
METAR-TAF:

METAR-TAF

Aéroports :

Aéroport Sandro-Pertini de Turin Caselle

Turin, Italie

latitude: 45-13N, longitude: 007-39E, altitude: 301 m

Observation

Le bulletin a été fait il y a 32 minutes, à 20:50 UTC
Vent 3 kt de nord-ouest
Température 3°C
Humidité 100%
Pression 1010 hPa
Visibilité: 7000 m
Nuages épars à une hauteur de 10000 ft

METAR: LIMF 202050Z 31003KT 7000 SCT100 03/03 Q1010

Heure: 22:22 (21:22 UTC)

Prévision

Le bulletin a été fait il y a 4 heures et 22 minutes, à 17:00 UTC
Prévision valable du 20 à 18 UTC au 21 à 18 UTC
Vent 5 kt de direction variable
Visibilité: 7000 m
Nuages fragmentés à une hauteur de 5000 ft
Temporairement
du 21 à 09 UTC au 21 à 15 UTC
pluie
Temporairement
du 21 à 10 UTC au 21 à 16 UTC
pluie

TAF: LIMF 201700Z 2018/2118 VRB05KT 7000 BKN050 TEMPO 2109/2115 RA TEMPO 2110/2116 RA

Observations et prévisions météorologiques de plus de 4000 aéroports (messages METAR et TAF).

Les stations disponibles sont représentées par des disques jaunes et rouges sur la carte.

Passer la souris dessus pour voir le nom de la station.

Cliquer dessus pour voir les observations et prévisions météorologiques.

Pour changer de carte: cliquez sur les boutons verts avec une croix noire pour zoomer, sur le bouton vert avec un tiret pour effectuer un zoom arrière, ou sur les flèches vertes pour les cartes adjacentes.


METAR-TAF: